Terminal Aerodrome Forecast
Issued by NWS

Home | Current Version | Previous Version | Text Only | Print | Product List | Glossary Off
Versions: 1 2 3 4 5 6 7 8 9 10 11 12 13 14 15

000
FTUS43 KICT 191131
TAFCNU
TAF
KCNU 191131Z 1912/2012 VRB05KT P6SM OVC250
     FM191400 VRB05KT P6SM VCSH BKN050 OVC100
     FM191900 VRB05KT P6SM VCTS OVC050CB
     FM192100 34015G25KT P6SM VCSH BKN040
     FM201000 31010KT P6SM SCT080=

USA.gov is the U.S. government's official web portal to all federal, state and local government web resources and services.